sensor_id;sensor_type;location;lat;lon;timestamp;temperature;humidity
53204;DHT22;39086;54.424;18.456;2023-08-07T00:00:14;15.30;99.90
53204;DHT22;39086;54.424;18.456;2023-08-07T00:01:16;15.40;99.90
53204;DHT22;39086;54.424;18.456;2023-08-07T00:03:22;15.30;99.90
53204;DHT22;39086;54.424;18.456;2023-08-07T00:04:25;15.40;99.90
53204;DHT22;39086;54.424;18.456;2023-08-07T00:05:27;15.40;99.90
53204;DHT22;39086;54.424;18.456;2023-08-07T00:06:30;15.40;99.90
53204;DHT22;39086;54.424;18.456;2023-08-07T00:07:32;15.40;99.90
53204;DHT22;39086;54.424;18.456;2023-08-07T00:08:37;15.30;99.90
53204;DHT22;39086;54.424;18.456;2023-08-07T00:09:40;15.30;99.90
53204;DHT22;39086;54.424;18.456;2023-08-07T00:10:43;15.20;99.90
53204;DHT22;39086;54.424;18.456;2023-08-07T00:11:45;15.30;99.90
53204;DHT22;39086;54.424;18.456;2023-08-07T00:12:48;15.30;99.90
53204;DHT22;39086;54.424;18.456;2023-08-07T00:13:50;15.30;99.90
53204;DHT22;39086;54.424;18.456;2023-08-07T00:14:52;15.30;99.90
53204;DHT22;39086;54.424;18.456;2023-08-07T00:15:55;15.30;99.90
53204;DHT22;39086;54.424;18.456;2023-08-07T00:16:57;15.20;99.90
53204;DHT22;39086;54.424;18.456;2023-08-07T00:18:00;15.20;99.90
53204;DHT22;39086;54.424;18.456;2023-08-07T00:19:02;15.20;99.90
53204;DHT22;39086;54.424;18.456;2023-08-07T00:21:09;15.10;99.90
53204;DHT22;39086;54.424;18.456;2023-08-07T00:23:14;15.20;99.90
53204;DHT22;39086;54.424;18.456;2023-08-07T00:24:18;15.20;99.90
53204;DHT22;39086;54.424;18.456;2023-08-07T00:25:21;15.10;99.90
53204;DHT22;39086;54.424;18.456;2023-08-07T00:26:23;15.10;99.90
53204;DHT22;39086;54.424;18.456;2023-08-07T00:27:26;15.10;99.90
53204;DHT22;39086;54.424;18.456;2023-08-07T00:30:34;15.10;99.90
53204;DHT22;39086;54.424;18.456;2023-08-07T00:31:37;15.10;99.90
53204;DHT22;39086;54.424;18.456;2023-08-07T00:32:39;15.00;99.90
53204;DHT22;39086;54.424;18.456;2023-08-07T00:33:42;15.10;99.90
53204;DHT22;39086;54.424;18.456;2023-08-07T00:34:45;15.10;99.90
53204;DHT22;39086;54.424;18.456;2023-08-07T00:35:48;15.10;99.90
53204;DHT22;39086;54.424;18.456;2023-08-07T00:36:50;15.10;99.90
53204;DHT22;39086;54.424;18.456;2023-08-07T00:37:53;15.10;99.90
53204;DHT22;39086;54.424;18.456;2023-08-07T00:38:55;15.10;99.90
53204;DHT22;39086;54.424;18.456;2023-08-07T00:39:59;15.10;99.90
53204;DHT22;39086;54.424;18.456;2023-08-07T00:41:01;15.10;99.90
53204;DHT22;39086;54.424;18.456;2023-08-07T00:42:05;15.00;99.90
53204;DHT22;39086;54.424;18.456;2023-08-07T00:43:07;15.10;99.90
53204;DHT22;39086;54.424;18.456;2023-08-07T00:44:09;15.10;99.90
53204;DHT22;39086;54.424;18.456;2023-08-07T00:45:13;15.00;99.90
53204;DHT22;39086;54.424;18.456;2023-08-07T00:46:15;15.00;99.90
53204;DHT22;39086;54.424;18.456;2023-08-07T00:47:18;14.90;99.90
53204;DHT22;39086;54.424;18.456;2023-08-07T00:48:20;14.90;99.90
53204;DHT22;39086;54.424;18.456;2023-08-07T00:49:24;14.70;99.90
53204;DHT22;39086;54.424;18.456;2023-08-07T00:50:27;14.80;99.90
53204;DHT22;39086;54.424;18.456;2023-08-07T00:51:48;14.80;99.90
53204;DHT22;39086;54.424;18.456;2023-08-07T00:52:50;14.80;99.90
53204;DHT22;39086;54.424;18.456;2023-08-07T00:53:53;14.80;99.90
53204;DHT22;39086;54.424;18.456;2023-08-07T00:54:55;14.80;99.90
53204;DHT22;39086;54.424;18.456;2023-08-07T00:56:00;14.80;99.90
53204;DHT22;39086;54.424;18.456;2023-08-07T00:57:12;14.80;99.90
53204;DHT22;39086;54.424;18.456;2023-08-07T00:58:17;14.80;99.90
53204;DHT22;39086;54.424;18.456;2023-08-07T00:59:20;14.80;99.90
53204;DHT22;39086;54.424;18.456;2023-08-07T01:00:23;14.80;99.90
53204;DHT22;39086;54.424;18.456;2023-08-07T01:01:26;14.80;99.90
53204;DHT22;39086;54.424;18.456;2023-08-07T01:02:29;14.80;99.90
53204;DHT22;39086;54.424;18.456;2023-08-07T01:04:35;14.70;99.90
53204;DHT22;39086;54.424;18.456;2023-08-07T01:05:37;14.70;99.90
53204;DHT22;39086;54.424;18.456;2023-08-07T01:06:40;14.70;99.90
53204;DHT22;39086;54.424;18.456;2023-08-07T01:07:43;14.60;99.90
53204;DHT22;39086;54.424;18.456;2023-08-07T01:08:47;14.60;99.90
53204;DHT22;39086;54.424;18.456;2023-08-07T01:09:49;14.70;99.90
53204;DHT22;39086;54.424;18.456;2023-08-07T01:11:10;14.60;99.90
53204;DHT22;39086;54.424;18.456;2023-08-07T01:12:19;14.70;99.90
53204;DHT22;39086;54.424;18.456;2023-08-07T01:13:27;14.70;99.90
53204;DHT22;39086;54.424;18.456;2023-08-07T01:14:37;14.70;99.90
53204;DHT22;39086;54.424;18.456;2023-08-07T01:15:40;14.70;99.90
53204;DHT22;39086;54.424;18.456;2023-08-07T01:16:46;14.70;99.90
53204;DHT22;39086;54.424;18.456;2023-08-07T01:17:52;14.60;99.90
53204;DHT22;39086;54.424;18.456;2023-08-07T01:18:57;14.70;99.90
53204;DHT22;39086;54.424;18.456;2023-08-07T01:20:03;14.70;99.90
53204;DHT22;39086;54.424;18.456;2023-08-07T01:21:05;14.70;99.90
53204;DHT22;39086;54.424;18.456;2023-08-07T01:22:11;14.70;99.90
53204;DHT22;39086;54.424;18.456;2023-08-07T01:23:13;14.70;99.90
53204;DHT22;39086;54.424;18.456;2023-08-07T01:24:16;14.70;99.90
53204;DHT22;39086;54.424;18.456;2023-08-07T01:25:18;14.70;99.90
53204;DHT22;39086;54.424;18.456;2023-08-07T01:26:21;14.80;99.90
53204;DHT22;39086;54.424;18.456;2023-08-07T01:27:34;14.80;99.90
53204;DHT22;39086;54.424;18.456;2023-08-07T01:28:46;14.60;99.90
53204;DHT22;39086;54.424;18.456;2023-08-07T01:29:52;14.60;99.90
53204;DHT22;39086;54.424;18.456;2023-08-07T01:31:03;14.60;99.90
53204;DHT22;39086;54.424;18.456;2023-08-07T01:32:08;14.70;99.90
53204;DHT22;39086;54.424;18.456;2023-08-07T01:33:17;14.70;99.90
53204;DHT22;39086;54.424;18.456;2023-08-07T01:34:25;14.70;99.90
53204;DHT22;39086;54.424;18.456;2023-08-07T01:35:30;14.60;99.90
53204;DHT22;39086;54.424;18.456;2023-08-07T01:36:35;14.60;99.90
53204;DHT22;39086;54.424;18.456;2023-08-07T01:37:42;14.70;99.90
53204;DHT22;39086;54.424;18.456;2023-08-07T01:38:48;14.70;99.90
53204;DHT22;39086;54.424;18.456;2023-08-07T01:39:52;14.70;99.90
53204;DHT22;39086;54.424;18.456;2023-08-07T01:40:57;14.70;99.90
53204;DHT22;39086;54.424;18.456;2023-08-07T01:41:59;14.70;99.90
53204;DHT22;39086;54.424;18.456;2023-08-07T01:43:04;14.70;99.90
53204;DHT22;39086;54.424;18.456;2023-08-07T01:44:06;14.70;99.90
53204;DHT22;39086;54.424;18.456;2023-08-07T01:45:10;14.70;99.90
53204;DHT22;39086;54.424;18.456;2023-08-07T01:46:12;14.70;99.90
53204;DHT22;39086;54.424;18.456;2023-08-07T01:47:15;14.80;99.90
53204;DHT22;39086;54.424;18.456;2023-08-07T01:48:17;14.80;99.90
53204;DHT22;39086;54.424;18.456;2023-08-07T01:49:20;14.80;99.90
53204;DHT22;39086;54.424;18.456;2023-08-07T01:50:24;14.70;99.90
53204;DHT22;39086;54.424;18.456;2023-08-07T01:51:27;14.80;99.90
53204;DHT22;39086;54.424;18.456;2023-08-07T01:52:29;14.80;99.90
53204;DHT22;39086;54.424;18.456;2023-08-07T01:53:33;14.70;99.90
53204;DHT22;39086;54.424;18.456;2023-08-07T01:54:35;14.70;99.90
53204;DHT22;39086;54.424;18.456;2023-08-07T01:55:38;14.80;99.90
53204;DHT22;39086;54.424;18.456;2023-08-07T01:56:40;14.80;99.90
53204;DHT22;39086;54.424;18.456;2023-08-07T01:57:44;14.80;99.90
53204;DHT22;39086;54.424;18.456;2023-08-07T01:58:46;14.80;99.90
53204;DHT22;39086;54.424;18.456;2023-08-07T01:59:49;14.80;99.90
53204;DHT22;39086;54.424;18.456;2023-08-07T02:00:52;14.80;99.90
53204;DHT22;39086;54.424;18.456;2023-08-07T02:01:55;14.70;99.90
53204;DHT22;39086;54.424;18.456;2023-08-07T02:02:57;14.80;99.90
53204;DHT22;39086;54.424;18.456;2023-08-07T02:04:01;14.80;99.90
53204;DHT22;39086;54.424;18.456;2023-08-07T02:05:03;14.90;99.90
53204;DHT22;39086;54.424;18.456;2023-08-07T02:06:05;14.80;99.90
53204;DHT22;39086;54.424;18.456;2023-08-07T02:07:08;14.70;99.90
53204;DHT22;39086;54.424;18.456;2023-08-07T02:08:10;14.70;99.90
53204;DHT22;39086;54.424;18.456;2023-08-07T02:09:15;14.80;99.90
53204;DHT22;39086;54.424;18.456;2023-08-07T02:11:20;14.60;99.90
53204;DHT22;39086;54.424;18.456;2023-08-07T02:12:22;14.70;99.90
53204;DHT22;39086;54.424;18.456;2023-08-07T02:13:24;14.70;99.90
53204;DHT22;39086;54.424;18.456;2023-08-07T02:14:27;14.70;99.90
53204;DHT22;39086;54.424;18.456;2023-08-07T02:15:29;14.80;99.90
53204;DHT22;39086;54.424;18.456;2023-08-07T02:16:32;14.90;99.90
53204;DHT22;39086;54.424;18.456;2023-08-07T02:17:35;14.80;99.90
53204;DHT22;39086;54.424;18.456;2023-08-07T02:18:40;14.80;99.90
53204;DHT22;39086;54.424;18.456;2023-08-07T02:19:42;14.80;99.90
53204;DHT22;39086;54.424;18.456;2023-08-07T02:20:45;14.70;99.90
53204;DHT22;39086;54.424;18.456;2023-08-07T02:21:47;14.70;99.90
53204;DHT22;39086;54.424;18.456;2023-08-07T02:22:50;14.80;99.90
53204;DHT22;39086;54.424;18.456;2023-08-07T02:25:59;14.80;99.90
53204;DHT22;39086;54.424;18.456;2023-08-07T02:27:03;14.80;99.90
53204;DHT22;39086;54.424;18.456;2023-08-07T02:32:17;14.80;99.90
53204;DHT22;39086;54.424;18.456;2023-08-07T02:34:23;14.70;99.90
53204;DHT22;39086;54.424;18.456;2023-08-07T02:35:26;14.80;99.90
53204;DHT22;39086;54.424;18.456;2023-08-07T02:36:28;14.80;99.90
53204;DHT22;39086;54.424;18.456;2023-08-07T02:37:31;14.70;99.90
53204;DHT22;39086;54.424;18.456;2023-08-07T02:38:33;14.80;99.90
53204;DHT22;39086;54.424;18.456;2023-08-07T02:39:36;14.80;99.90
53204;DHT22;39086;54.424;18.456;2023-08-07T02:43:48;14.70;99.90
53204;DHT22;39086;54.424;18.456;2023-08-07T02:44:50;14.80;99.90
53204;DHT22;39086;54.424;18.456;2023-08-07T02:51:09;14.70;99.90
53204;DHT22;39086;54.424;18.456;2023-08-07T02:52:12;14.90;99.90
53204;DHT22;39086;54.424;18.456;2023-08-07T02:53:14;14.80;99.90
53204;DHT22;39086;54.424;18.456;2023-08-07T03:04:47;14.90;99.90
53204;DHT22;39086;54.424;18.456;2023-08-07T03:05:49;14.90;99.90
53204;DHT22;39086;54.424;18.456;2023-08-07T03:18:27;14.90;99.90
53204;DHT22;39086;54.424;18.456;2023-08-07T03:19:30;14.90;99.90
53204;DHT22;39086;54.424;18.456;2023-08-07T03:20:32;15.00;99.90
53204;DHT22;39086;54.424;18.456;2023-08-07T03:21:35;14.90;99.90
53204;DHT22;39086;54.424;18.456;2023-08-07T03:22:37;14.90;99.90
53204;DHT22;39086;54.424;18.456;2023-08-07T03:24:46;14.90;99.90
53204;DHT22;39086;54.424;18.456;2023-08-07T03:26:57;14.90;99.90
53204;DHT22;39086;54.424;18.456;2023-08-07T03:28:02;14.90;99.90
53204;DHT22;39086;54.424;18.456;2023-08-07T03:29:04;14.90;99.90
53204;DHT22;39086;54.424;18.456;2023-08-07T03:30:08;14.90;99.90
53204;DHT22;39086;54.424;18.456;2023-08-07T03:31:10;14.90;99.90
53204;DHT22;39086;54.424;18.456;2023-08-07T03:32:13;14.90;99.90
53204;DHT22;39086;54.424;18.456;2023-08-07T03:33:15;15.00;99.90
53204;DHT22;39086;54.424;18.456;2023-08-07T03:34:18;14.90;99.90
53204;DHT22;39086;54.424;18.456;2023-08-07T03:35:20;15.00;99.90
53204;DHT22;39086;54.424;18.456;2023-08-07T03:36:23;14.90;99.90
53204;DHT22;39086;54.424;18.456;2023-08-07T03:37:26;15.00;99.90
53204;DHT22;39086;54.424;18.456;2023-08-07T03:38:28;14.90;99.90
53204;DHT22;39086;54.424;18.456;2023-08-07T03:39:31;14.90;99.90
53204;DHT22;39086;54.424;18.456;2023-08-07T03:40:33;15.00;99.90
53204;DHT22;39086;54.424;18.456;2023-08-07T03:41:36;15.00;99.90
53204;DHT22;39086;54.424;18.456;2023-08-07T03:42:38;14.90;99.90
53204;DHT22;39086;54.424;18.456;2023-08-07T03:43:43;14.90;99.90
53204;DHT22;39086;54.424;18.456;2023-08-07T03:44:45;15.00;99.90
53204;DHT22;39086;54.424;18.456;2023-08-07T03:45:54;14.90;99.90
53204;DHT22;39086;54.424;18.456;2023-08-07T03:47:00;14.90;99.90
53204;DHT22;39086;54.424;18.456;2023-08-07T03:48:03;14.80;99.90
53204;DHT22;39086;54.424;18.456;2023-08-07T03:49:05;14.90;99.90
53204;DHT22;39086;54.424;18.456;2023-08-07T03:50:08;14.80;99.90
53204;DHT22;39086;54.424;18.456;2023-08-07T03:51:11;14.90;99.90
53204;DHT22;39086;54.424;18.456;2023-08-07T03:52:13;14.90;99.90
53204;DHT22;39086;54.424;18.456;2023-08-07T03:53:16;14.90;99.90
53204;DHT22;39086;54.424;18.456;2023-08-07T03:54:18;14.90;99.90
53204;DHT22;39086;54.424;18.456;2023-08-07T03:55:21;14.90;99.90
53204;DHT22;39086;54.424;18.456;2023-08-07T04:24:49;14.70;99.90
53204;DHT22;39086;54.424;18.456;2023-08-07T04:25:52;14.80;99.90
53204;DHT22;39086;54.424;18.456;2023-08-07T04:26:56;14.80;99.90
53204;DHT22;39086;54.424;18.456;2023-08-07T04:27:58;14.80;99.90
53204;DHT22;39086;54.424;18.456;2023-08-07T04:29:02;14.80;99.90
53204;DHT22;39086;54.424;18.456;2023-08-07T04:30:05;14.80;99.90
53204;DHT22;39086;54.424;18.456;2023-08-07T04:31:09;14.80;99.90
53204;DHT22;39086;54.424;18.456;2023-08-07T04:32:11;14.80;99.90
53204;DHT22;39086;54.424;18.456;2023-08-07T04:33:14;14.80;99.90
53204;DHT22;39086;54.424;18.456;2023-08-07T04:34:16;14.80;99.90
53204;DHT22;39086;54.424;18.456;2023-08-07T04:35:20;14.90;99.90
53204;DHT22;39086;54.424;18.456;2023-08-07T04:36:22;14.90;99.90
53204;DHT22;39086;54.424;18.456;2023-08-07T04:37:26;14.90;99.90
53204;DHT22;39086;54.424;18.456;2023-08-07T04:38:28;14.90;99.90
53204;DHT22;39086;54.424;18.456;2023-08-07T04:39:31;14.90;99.90
53204;DHT22;39086;54.424;18.456;2023-08-07T04:40:33;14.80;99.90
53204;DHT22;39086;54.424;18.456;2023-08-07T04:41:36;14.90;99.90
53204;DHT22;39086;54.424;18.456;2023-08-07T04:42:38;14.80;99.90
53204;DHT22;39086;54.424;18.456;2023-08-07T04:43:42;14.90;99.90
53204;DHT22;39086;54.424;18.456;2023-08-07T04:44:44;14.90;99.90
53204;DHT22;39086;54.424;18.456;2023-08-07T04:45:47;14.90;99.90
53204;DHT22;39086;54.424;18.456;2023-08-07T04:46:51;14.80;99.90
53204;DHT22;39086;54.424;18.456;2023-08-07T04:47:54;14.70;99.90
53204;DHT22;39086;54.424;18.456;2023-08-07T04:48:57;14.90;99.90
53204;DHT22;39086;54.424;18.456;2023-08-07T04:50:00;14.90;99.90
53204;DHT22;39086;54.424;18.456;2023-08-07T04:51:02;14.80;99.90
53204;DHT22;39086;54.424;18.456;2023-08-07T04:52:06;14.90;99.90
53204;DHT22;39086;54.424;18.456;2023-08-07T04:53:26;14.80;99.90
53204;DHT22;39086;54.424;18.456;2023-08-07T04:54:29;14.80;99.90
53204;DHT22;39086;54.424;18.456;2023-08-07T04:55:31;14.80;99.90
53204;DHT22;39086;54.424;18.456;2023-08-07T04:56:33;14.90;99.90
53204;DHT22;39086;54.424;18.456;2023-08-07T04:57:36;14.80;99.90
53204;DHT22;39086;54.424;18.456;2023-08-07T04:58:38;14.90;99.90
53204;DHT22;39086;54.424;18.456;2023-08-07T04:59:42;14.90;99.90
53204;DHT22;39086;54.424;18.456;2023-08-07T05:00:44;14.80;99.90
53204;DHT22;39086;54.424;18.456;2023-08-07T05:01:47;14.90;99.90
53204;DHT22;39086;54.424;18.456;2023-08-07T05:02:50;14.90;99.90
53204;DHT22;39086;54.424;18.456;2023-08-07T05:03:54;14.80;99.90
53204;DHT22;39086;54.424;18.456;2023-08-07T05:04:56;14.80;99.90
53204;DHT22;39086;54.424;18.456;2023-08-07T05:05:59;14.80;99.90
53204;DHT22;39086;54.424;18.456;2023-08-07T05:07:02;14.80;99.90
53204;DHT22;39086;54.424;18.456;2023-08-07T05:09:07;14.80;99.90
53204;DHT22;39086;54.424;18.456;2023-08-07T05:10:10;14.80;99.90
53204;DHT22;39086;54.424;18.456;2023-08-07T05:11:12;14.90;99.90
53204;DHT22;39086;54.424;18.456;2023-08-07T05:12:14;14.80;99.90
53204;DHT22;39086;54.424;18.456;2023-08-07T05:13:17;14.90;99.90
53204;DHT22;39086;54.424;18.456;2023-08-07T05:14:19;14.90;99.90
53204;DHT22;39086;54.424;18.456;2023-08-07T05:15:23;14.90;99.90
53204;DHT22;39086;54.424;18.456;2023-08-07T05:16:25;14.90;99.90
53204;DHT22;39086;54.424;18.456;2023-08-07T05:17:28;15.00;99.90
53204;DHT22;39086;54.424;18.456;2023-08-07T05:18:31;14.90;99.90
53204;DHT22;39086;54.424;18.456;2023-08-07T05:19:34;15.00;99.90
53204;DHT22;39086;54.424;18.456;2023-08-07T05:20:36;15.00;99.90
53204;DHT22;39086;54.424;18.456;2023-08-07T05:21:39;15.00;99.90
53204;DHT22;39086;54.424;18.456;2023-08-07T05:22:41;15.10;99.90
53204;DHT22;39086;54.424;18.456;2023-08-07T05:23:45;15.00;99.90
53204;DHT22;39086;54.424;18.456;2023-08-07T05:24:47;15.10;99.90
53204;DHT22;39086;54.424;18.456;2023-08-07T05:25:50;15.10;99.90
53204;DHT22;39086;54.424;18.456;2023-08-07T05:26:52;15.10;99.90
53204;DHT22;39086;54.424;18.456;2023-08-07T05:27:55;15.10;99.90
53204;DHT22;39086;54.424;18.456;2023-08-07T05:28:57;15.10;99.90
53204;DHT22;39086;54.424;18.456;2023-08-07T05:30:01;15.20;99.90
53204;DHT22;39086;54.424;18.456;2023-08-07T05:31:03;15.10;99.90
53204;DHT22;39086;54.424;18.456;2023-08-07T05:32:06;15.10;99.90
53204;DHT22;39086;54.424;18.456;2023-08-07T05:33:08;15.20;99.90
53204;DHT22;39086;54.424;18.456;2023-08-07T05:34:13;15.20;99.90
53204;DHT22;39086;54.424;18.456;2023-08-07T05:41:32;15.20;99.90
53204;DHT22;39086;54.424;18.456;2023-08-07T05:42:35;15.40;99.90
53204;DHT22;39086;54.424;18.456;2023-08-07T05:43:37;15.40;99.90
53204;DHT22;39086;54.424;18.456;2023-08-07T05:48:53;15.40;99.90
53204;DHT22;39086;54.424;18.456;2023-08-07T05:49:57;15.40;99.90
53204;DHT22;39086;54.424;18.456;2023-08-07T05:51:00;15.50;99.90
53204;DHT22;39086;54.424;18.456;2023-08-07T05:56:14;15.70;99.90
53204;DHT22;39086;54.424;18.456;2023-08-07T05:58:21;15.70;99.90
53204;DHT22;39086;54.424;18.456;2023-08-07T05:59:23;15.90;99.90
53204;DHT22;39086;54.424;18.456;2023-08-07T06:00:26;15.90;99.90
53204;DHT22;39086;54.424;18.456;2023-08-07T06:01:30;16.00;99.90
53204;DHT22;39086;54.424;18.456;2023-08-07T06:02:33;16.00;99.90
53204;DHT22;39086;54.424;18.456;2023-08-07T06:03:35;15.90;99.90
53204;DHT22;39086;54.424;18.456;2023-08-07T06:05:43;16.00;99.90
53204;DHT22;39086;54.424;18.456;2023-08-07T06:06:45;16.00;99.90
53204;DHT22;39086;54.424;18.456;2023-08-07T06:07:48;16.10;99.90
53204;DHT22;39086;54.424;18.456;2023-08-07T06:08:50;15.90;99.90
53204;DHT22;39086;54.424;18.456;2023-08-07T06:09:53;16.00;99.90
53204;DHT22;39086;54.424;18.456;2023-08-07T06:10:55;15.90;99.90
53204;DHT22;39086;54.424;18.456;2023-08-07T06:11:58;15.90;99.90
53204;DHT22;39086;54.424;18.456;2023-08-07T06:13:00;15.90;99.90
53204;DHT22;39086;54.424;18.456;2023-08-07T06:18:17;15.90;99.90
53204;DHT22;39086;54.424;18.456;2023-08-07T06:19:19;16.00;99.90
53204;DHT22;39086;54.424;18.456;2023-08-07T06:20:34;16.00;99.90
53204;DHT22;39086;54.424;18.456;2023-08-07T06:21:38;16.10;99.90
53204;DHT22;39086;54.424;18.456;2023-08-07T06:22:41;16.10;99.90
53204;DHT22;39086;54.424;18.456;2023-08-07T06:29:04;16.10;99.90
53204;DHT22;39086;54.424;18.456;2023-08-07T06:32:13;16.10;99.90
53204;DHT22;39086;54.424;18.456;2023-08-07T06:34:19;15.90;99.90
53204;DHT22;39086;54.424;18.456;2023-08-07T06:35:21;16.00;99.90
53204;DHT22;39086;54.424;18.456;2023-08-07T06:39:34;15.90;99.90
53204;DHT22;39086;54.424;18.456;2023-08-07T06:40:37;16.00;99.90
53204;DHT22;39086;54.424;18.456;2023-08-07T06:41:39;16.10;99.90
53204;DHT22;39086;54.424;18.456;2023-08-07T06:44:48;16.00;99.90
53204;DHT22;39086;54.424;18.456;2023-08-07T06:47:56;16.10;99.90
53204;DHT22;39086;54.424;18.456;2023-08-07T06:52:07;16.00;99.90
53204;DHT22;39086;54.424;18.456;2023-08-07T06:53:10;16.20;99.90
53204;DHT22;39086;54.424;18.456;2023-08-07T06:56:20;16.20;99.90
53204;DHT22;39086;54.424;18.456;2023-08-07T06:57:22;16.30;99.90
53204;DHT22;39086;54.424;18.456;2023-08-07T07:02:39;16.30;99.90
53204;DHT22;39086;54.424;18.456;2023-08-07T07:06:51;16.30;99.90
53204;DHT22;39086;54.424;18.456;2023-08-07T07:07:55;16.30;99.90
53204;DHT22;39086;54.424;18.456;2023-08-07T07:16:21;16.00;99.90
53204;DHT22;39086;54.424;18.456;2023-08-07T07:17:24;16.10;99.90
53204;DHT22;39086;54.424;18.456;2023-08-07T07:19:29;16.20;99.90
53204;DHT22;39086;54.424;18.456;2023-08-07T07:22:38;16.40;99.90
53204;DHT22;39086;54.424;18.456;2023-08-07T07:23:40;16.60;99.90
53204;DHT22;39086;54.424;18.456;2023-08-07T07:24:44;16.50;99.90
53204;DHT22;39086;54.424;18.456;2023-08-07T07:25:47;16.70;99.90
53204;DHT22;39086;54.424;18.456;2023-08-07T07:26:50;16.70;99.90
53204;DHT22;39086;54.424;18.456;2023-08-07T07:27:52;16.80;99.90
53204;DHT22;39086;54.424;18.456;2023-08-07T07:28:55;16.80;99.90
53204;DHT22;39086;54.424;18.456;2023-08-07T07:29:57;16.90;99.90
53204;DHT22;39086;54.424;18.456;2023-08-07T07:31:00;17.00;99.90
53204;DHT22;39086;54.424;18.456;2023-08-07T07:32:03;16.90;99.90
53204;DHT22;39086;54.424;18.456;2023-08-07T07:33:06;16.90;99.90
53204;DHT22;39086;54.424;18.456;2023-08-07T07:34:08;16.90;99.90
53204;DHT22;39086;54.424;18.456;2023-08-07T07:35:11;16.80;99.90
53204;DHT22;39086;54.424;18.456;2023-08-07T07:36:15;17.00;99.90
53204;DHT22;39086;54.424;18.456;2023-08-07T07:37:18;17.10;99.90
53204;DHT22;39086;54.424;18.456;2023-08-07T07:38:20;17.00;99.90
53204;DHT22;39086;54.424;18.456;2023-08-07T07:39:23;17.00;99.90
53204;DHT22;39086;54.424;18.456;2023-08-07T07:40:27;17.00;99.90
53204;DHT22;39086;54.424;18.456;2023-08-07T07:41:30;17.00;99.90
53204;DHT22;39086;54.424;18.456;2023-08-07T07:42:32;17.10;99.90
53204;DHT22;39086;54.424;18.456;2023-08-07T07:43:35;17.10;99.90
53204;DHT22;39086;54.424;18.456;2023-08-07T07:44:37;17.10;99.90
53204;DHT22;39086;54.424;18.456;2023-08-07T07:45:41;17.20;99.90
53204;DHT22;39086;54.424;18.456;2023-08-07T07:46:46;17.10;99.90
53204;DHT22;39086;54.424;18.456;2023-08-07T07:47:49;17.10;99.90
53204;DHT22;39086;54.424;18.456;2023-08-07T07:48:51;17.00;99.90
53204;DHT22;39086;54.424;18.456;2023-08-07T07:50:05;17.30;99.90
53204;DHT22;39086;54.424;18.456;2023-08-07T07:51:07;17.30;99.90
53204;DHT22;39086;54.424;18.456;2023-08-07T07:52:10;17.30;99.90
53204;DHT22;39086;54.424;18.456;2023-08-07T07:53:12;17.20;99.90
53204;DHT22;39086;54.424;18.456;2023-08-07T07:54:14;17.20;99.90
53204;DHT22;39086;54.424;18.456;2023-08-07T07:55:17;17.20;99.90
53204;DHT22;39086;54.424;18.456;2023-08-07T07:56:21;17.40;99.90
53204;DHT22;39086;54.424;18.456;2023-08-07T07:57:24;17.40;99.90
53204;DHT22;39086;54.424;18.456;2023-08-07T07:58:26;17.00;99.90
53204;DHT22;39086;54.424;18.456;2023-08-07T07:59:28;17.00;99.90
53204;DHT22;39086;54.424;18.456;2023-08-07T08:00:31;16.90;99.90
53204;DHT22;39086;54.424;18.456;2023-08-07T08:01:33;17.00;99.90
53204;DHT22;39086;54.424;18.456;2023-08-07T08:02:36;17.00;99.90
53204;DHT22;39086;54.424;18.456;2023-08-07T08:03:41;16.90;99.90
53204;DHT22;39086;54.424;18.456;2023-08-07T08:04:45;17.00;99.90
53204;DHT22;39086;54.424;18.456;2023-08-07T08:05:50;17.10;99.90
53204;DHT22;39086;54.424;18.456;2023-08-07T08:08:59;16.90;99.90
53204;DHT22;39086;54.424;18.456;2023-08-07T08:10:01;17.10;99.90
53204;DHT22;39086;54.424;18.456;2023-08-07T08:11:04;17.10;99.90
53204;DHT22;39086;54.424;18.456;2023-08-07T08:12:08;17.10;99.90
53204;DHT22;39086;54.424;18.456;2023-08-07T08:15:18;16.90;99.90
53204;DHT22;39086;54.424;18.456;2023-08-07T08:16:20;16.90;99.90
53204;DHT22;39086;54.424;18.456;2023-08-07T08:17:23;16.90;99.90
53204;DHT22;39086;54.424;18.456;2023-08-07T08:18:26;16.80;99.90
53204;DHT22;39086;54.424;18.456;2023-08-07T08:19:28;16.80;99.90
53204;DHT22;39086;54.424;18.456;2023-08-07T08:20:46;16.60;99.90
53204;DHT22;39086;54.424;18.456;2023-08-07T08:21:48;16.70;99.90
53204;DHT22;39086;54.424;18.456;2023-08-07T08:22:51;16.60;99.90
53204;DHT22;39086;54.424;18.456;2023-08-07T08:23:53;16.80;99.90
53204;DHT22;39086;54.424;18.456;2023-08-07T08:24:56;16.60;99.90
53204;DHT22;39086;54.424;18.456;2023-08-07T08:25:58;16.60;99.90
53204;DHT22;39086;54.424;18.456;2023-08-07T08:27:01;16.60;99.90
53204;DHT22;39086;54.424;18.456;2023-08-07T08:28:05;16.70;99.90
53204;DHT22;39086;54.424;18.456;2023-08-07T08:29:08;16.50;99.90
53204;DHT22;39086;54.424;18.456;2023-08-07T08:30:10;16.60;99.90
53204;DHT22;39086;54.424;18.456;2023-08-07T08:31:13;16.70;99.90
53204;DHT22;39086;54.424;18.456;2023-08-07T08:32:15;16.70;99.90
53204;DHT22;39086;54.424;18.456;2023-08-07T08:33:18;16.70;99.90
53204;DHT22;39086;54.424;18.456;2023-08-07T08:34:20;16.70;99.90
53204;DHT22;39086;54.424;18.456;2023-08-07T08:35:24;16.50;99.90
53204;DHT22;39086;54.424;18.456;2023-08-07T08:36:26;16.70;99.90
53204;DHT22;39086;54.424;18.456;2023-08-07T08:37:30;16.60;99.90
53204;DHT22;39086;54.424;18.456;2023-08-07T08:38:32;16.50;99.90
53204;DHT22;39086;54.424;18.456;2023-08-07T08:39:35;16.60;99.90
53204;DHT22;39086;54.424;18.456;2023-08-07T08:40:38;16.70;99.90
53204;DHT22;39086;54.424;18.456;2023-08-07T08:41:45;16.70;99.90
53204;DHT22;39086;54.424;18.456;2023-08-07T08:42:48;16.70;99.90
53204;DHT22;39086;54.424;18.456;2023-08-07T08:43:54;16.80;99.90
53204;DHT22;39086;54.424;18.456;2023-08-07T08:44:59;16.70;99.90
53204;DHT22;39086;54.424;18.456;2023-08-07T08:46:04;16.80;99.90
53204;DHT22;39086;54.424;18.456;2023-08-07T08:47:07;16.70;99.90
53204;DHT22;39086;54.424;18.456;2023-08-07T08:48:15;16.50;99.90
53204;DHT22;39086;54.424;18.456;2023-08-07T08:49:26;16.50;99.90
53204;DHT22;39086;54.424;18.456;2023-08-07T08:50:32;16.50;99.90
53204;DHT22;39086;54.424;18.456;2023-08-07T08:51:35;16.40;99.90
53204;DHT22;39086;54.424;18.456;2023-08-07T08:52:40;16.30;99.90
53204;DHT22;39086;54.424;18.456;2023-08-07T08:53:42;16.30;99.90
53204;DHT22;39086;54.424;18.456;2023-08-07T08:54:46;16.40;99.90